sensor_id;sensor_type;location;lat;lon;timestamp;temperature;humidity
52555;DHT22;38455;52.710;6.502;2022-07-29T00:02:03;15.90;99.90
52555;DHT22;38455;52.710;6.502;2022-07-29T00:04:28;15.90;99.90
52555;DHT22;38455;52.710;6.502;2022-07-29T00:06:54;15.90;99.90
52555;DHT22;38455;52.710;6.502;2022-07-29T00:09:20;15.90;99.90
52555;DHT22;38455;52.710;6.502;2022-07-29T00:11:45;15.90;99.90
52555;DHT22;38455;52.710;6.502;2022-07-29T00:14:11;15.90;99.90
52555;DHT22;38455;52.710;6.502;2022-07-29T00:16:37;15.90;99.90
52555;DHT22;38455;52.710;6.502;2022-07-29T00:19:03;15.90;99.90
52555;DHT22;38455;52.710;6.502;2022-07-29T00:21:28;15.90;99.90
52555;DHT22;38455;52.710;6.502;2022-07-29T00:23:54;15.90;99.90
52555;DHT22;38455;52.710;6.502;2022-07-29T00:26:20;15.90;99.90
52555;DHT22;38455;52.710;6.502;2022-07-29T00:28:46;15.90;99.90
52555;DHT22;38455;52.710;6.502;2022-07-29T00:31:12;15.90;99.90
52555;DHT22;38455;52.710;6.502;2022-07-29T00:33:38;15.80;99.90
52555;DHT22;38455;52.710;6.502;2022-07-29T00:36:04;15.80;99.90
52555;DHT22;38455;52.710;6.502;2022-07-29T00:38:29;15.80;99.90
52555;DHT22;38455;52.710;6.502;2022-07-29T00:40:55;15.80;99.90
52555;DHT22;38455;52.710;6.502;2022-07-29T00:43:21;15.80;99.90
52555;DHT22;38455;52.710;6.502;2022-07-29T00:45:46;15.80;99.90
52555;DHT22;38455;52.710;6.502;2022-07-29T00:48:12;15.80;99.90
52555;DHT22;38455;52.710;6.502;2022-07-29T00:50:38;15.80;99.90
52555;DHT22;38455;52.710;6.502;2022-07-29T00:53:05;15.80;99.90
52555;DHT22;38455;52.710;6.502;2022-07-29T00:55:31;15.80;99.90
52555;DHT22;38455;52.710;6.502;2022-07-29T00:57:58;15.80;99.90
52555;DHT22;38455;52.710;6.502;2022-07-29T01:00:25;15.80;99.90
52555;DHT22;38455;52.710;6.502;2022-07-29T01:02:52;15.80;99.90
52555;DHT22;38455;52.710;6.502;2022-07-29T01:05:22;15.70;99.90
52555;DHT22;38455;52.710;6.502;2022-07-29T01:07:51;15.70;99.90
52555;DHT22;38455;52.710;6.502;2022-07-29T01:10:18;15.70;99.90
52555;DHT22;38455;52.710;6.502;2022-07-29T01:12:47;15.80;99.90
52555;DHT22;38455;52.710;6.502;2022-07-29T01:15:13;15.80;99.90
52555;DHT22;38455;52.710;6.502;2022-07-29T01:20:36;15.80;99.90
52555;DHT22;38455;52.710;6.502;2022-07-29T01:23:25;15.80;99.90
52555;DHT22;38455;52.710;6.502;2022-07-29T01:29:04;15.80;99.90
52555;DHT22;38455;52.710;6.502;2022-07-29T01:32:05;15.80;99.90
52555;DHT22;38455;52.710;6.502;2022-07-29T01:34:53;15.80;99.90
52555;DHT22;38455;52.710;6.502;2022-07-29T01:38:09;15.80;99.90
52555;DHT22;38455;52.710;6.502;2022-07-29T01:40:29;15.80;99.90
52555;DHT22;38455;52.710;6.502;2022-07-29T01:42:58;15.70;99.90
52555;DHT22;38455;52.710;6.502;2022-07-29T01:45:41;15.80;99.90
52555;DHT22;38455;52.710;6.502;2022-07-29T01:48:16;15.70;99.90
52555;DHT22;38455;52.710;6.502;2022-07-29T01:50:52;15.60;99.90
52555;DHT22;38455;52.710;6.502;2022-07-29T01:53:44;15.60;99.90
52555;DHT22;38455;52.710;6.502;2022-07-29T01:56:13;15.60;99.90
52555;DHT22;38455;52.710;6.502;2022-07-29T01:58:41;15.60;99.90
52555;DHT22;38455;52.710;6.502;2022-07-29T02:01:09;15.60;99.90
52555;DHT22;38455;52.710;6.502;2022-07-29T02:03:37;15.60;99.90
52555;DHT22;38455;52.710;6.502;2022-07-29T02:06:05;15.50;99.90
52555;DHT22;38455;52.710;6.502;2022-07-29T02:08:33;15.50;99.90
52555;DHT22;38455;52.710;6.502;2022-07-29T02:11:00;15.50;99.90
52555;DHT22;38455;52.710;6.502;2022-07-29T02:13:27;15.40;99.90
52555;DHT22;38455;52.710;6.502;2022-07-29T02:15:55;15.40;99.90
52555;DHT22;38455;52.710;6.502;2022-07-29T02:18:23;15.40;99.90
52555;DHT22;38455;52.710;6.502;2022-07-29T02:20:52;15.40;99.90
52555;DHT22;38455;52.710;6.502;2022-07-29T02:23:22;15.40;99.90
52555;DHT22;38455;52.710;6.502;2022-07-29T02:25:58;15.40;99.90
52555;DHT22;38455;52.710;6.502;2022-07-29T02:28:26;15.40;99.90
52555;DHT22;38455;52.710;6.502;2022-07-29T02:30:54;15.40;99.90
52555;DHT22;38455;52.710;6.502;2022-07-29T02:33:21;15.40;99.90
52555;DHT22;38455;52.710;6.502;2022-07-29T02:35:49;15.30;99.90
52555;DHT22;38455;52.710;6.502;2022-07-29T02:38:16;15.40;99.90
52555;DHT22;38455;52.710;6.502;2022-07-29T02:41:04;15.30;99.90
52555;DHT22;38455;52.710;6.502;2022-07-29T02:43:32;15.30;99.90
52555;DHT22;38455;52.710;6.502;2022-07-29T02:45:59;15.30;99.90
52555;DHT22;38455;52.710;6.502;2022-07-29T02:48:36;15.30;99.90
52555;DHT22;38455;52.710;6.502;2022-07-29T02:51:13;15.30;99.90
52555;DHT22;38455;52.710;6.502;2022-07-29T02:53:43;15.30;99.90
52555;DHT22;38455;52.710;6.502;2022-07-29T02:56:14;15.30;99.90
52555;DHT22;38455;52.710;6.502;2022-07-29T02:58:54;15.20;99.90
52555;DHT22;38455;52.710;6.502;2022-07-29T03:01:22;15.30;99.90
52555;DHT22;38455;52.710;6.502;2022-07-29T03:03:51;15.20;99.90
52555;DHT22;38455;52.710;6.502;2022-07-29T03:06:18;15.20;99.90
52555;DHT22;38455;52.710;6.502;2022-07-29T03:08:44;15.20;99.90
52555;DHT22;38455;52.710;6.502;2022-07-29T03:11:11;15.20;99.90
52555;DHT22;38455;52.710;6.502;2022-07-29T03:13:38;15.20;99.90
52555;DHT22;38455;52.710;6.502;2022-07-29T03:16:05;15.20;99.90
52555;DHT22;38455;52.710;6.502;2022-07-29T03:18:31;15.10;99.90
52555;DHT22;38455;52.710;6.502;2022-07-29T03:20:57;15.10;99.90
52555;DHT22;38455;52.710;6.502;2022-07-29T03:23:23;15.10;99.90
52555;DHT22;38455;52.710;6.502;2022-07-29T03:25:51;15.10;99.90
52555;DHT22;38455;52.710;6.502;2022-07-29T03:28:17;15.10;99.90
52555;DHT22;38455;52.710;6.502;2022-07-29T03:30:43;15.00;99.90
52555;DHT22;38455;52.710;6.502;2022-07-29T03:33:08;15.00;99.90
52555;DHT22;38455;52.710;6.502;2022-07-29T03:35:34;15.00;99.90
52555;DHT22;38455;52.710;6.502;2022-07-29T03:38:00;15.00;99.90
52555;DHT22;38455;52.710;6.502;2022-07-29T03:40:59;15.00;99.90
52555;DHT22;38455;52.710;6.502;2022-07-29T03:43:30;15.00;99.90
52555;DHT22;38455;52.710;6.502;2022-07-29T03:45:57;15.00;99.90
52555;DHT22;38455;52.710;6.502;2022-07-29T03:48:25;14.90;99.90
52555;DHT22;38455;52.710;6.502;2022-07-29T03:50:51;14.90;99.90
52555;DHT22;38455;52.710;6.502;2022-07-29T03:53:18;14.90;99.90
52555;DHT22;38455;52.710;6.502;2022-07-29T03:55:48;14.90;99.90
52555;DHT22;38455;52.710;6.502;2022-07-29T03:58:16;15.00;99.90
52555;DHT22;38455;52.710;6.502;2022-07-29T04:00:43;14.90;99.90
52555;DHT22;38455;52.710;6.502;2022-07-29T04:03:10;14.90;99.90
52555;DHT22;38455;52.710;6.502;2022-07-29T04:05:35;14.90;99.90
52555;DHT22;38455;52.710;6.502;2022-07-29T04:08:01;14.90;99.90
52555;DHT22;38455;52.710;6.502;2022-07-29T04:10:27;14.90;99.90
52555;DHT22;38455;52.710;6.502;2022-07-29T04:12:53;14.90;99.90
52555;DHT22;38455;52.710;6.502;2022-07-29T04:15:19;14.90;99.90
52555;DHT22;38455;52.710;6.502;2022-07-29T04:17:45;14.90;99.90
52555;DHT22;38455;52.710;6.502;2022-07-29T04:20:11;14.90;99.90
52555;DHT22;38455;52.710;6.502;2022-07-29T04:22:40;14.90;99.90
52555;DHT22;38455;52.710;6.502;2022-07-29T04:25:07;14.90;99.90
52555;DHT22;38455;52.710;6.502;2022-07-29T04:27:32;14.90;99.90
52555;DHT22;38455;52.710;6.502;2022-07-29T04:29:58;14.90;99.90
52555;DHT22;38455;52.710;6.502;2022-07-29T04:32:24;14.90;99.90
52555;DHT22;38455;52.710;6.502;2022-07-29T04:34:50;14.90;99.90
52555;DHT22;38455;52.710;6.502;2022-07-29T04:37:16;14.90;99.90
52555;DHT22;38455;52.710;6.502;2022-07-29T04:39:42;14.80;99.90
52555;DHT22;38455;52.710;6.502;2022-07-29T04:42:07;14.90;99.90
52555;DHT22;38455;52.710;6.502;2022-07-29T04:44:33;14.90;99.90
52555;DHT22;38455;52.710;6.502;2022-07-29T04:46:59;14.90;99.90
52555;DHT22;38455;52.710;6.502;2022-07-29T04:49:25;14.90;99.90
52555;DHT22;38455;52.710;6.502;2022-07-29T04:51:50;14.90;99.90
52555;DHT22;38455;52.710;6.502;2022-07-29T04:54:16;14.90;99.90
52555;DHT22;38455;52.710;6.502;2022-07-29T04:56:42;15.00;99.90
52555;DHT22;38455;52.710;6.502;2022-07-29T04:59:07;15.00;99.90
52555;DHT22;38455;52.710;6.502;2022-07-29T05:01:33;15.00;99.90
52555;DHT22;38455;52.710;6.502;2022-07-29T05:03:59;15.10;99.90
52555;DHT22;38455;52.710;6.502;2022-07-29T05:06:24;15.40;99.90
52555;DHT22;38455;52.710;6.502;2022-07-29T05:08:50;15.50;99.90
52555;DHT22;38455;52.710;6.502;2022-07-29T05:11:15;15.50;99.90
52555;DHT22;38455;52.710;6.502;2022-07-29T05:13:41;15.50;99.90
52555;DHT22;38455;52.710;6.502;2022-07-29T05:16:08;15.50;99.90
52555;DHT22;38455;52.710;6.502;2022-07-29T05:18:33;15.50;99.90
52555;DHT22;38455;52.710;6.502;2022-07-29T05:20:59;15.60;99.90
52555;DHT22;38455;52.710;6.502;2022-07-29T05:23:26;15.60;99.90
52555;DHT22;38455;52.710;6.502;2022-07-29T05:25:51;15.90;99.90
52555;DHT22;38455;52.710;6.502;2022-07-29T05:28:17;16.10;99.90
52555;DHT22;38455;52.710;6.502;2022-07-29T05:30:43;16.30;99.90
52555;DHT22;38455;52.710;6.502;2022-07-29T05:33:10;16.20;99.90
52555;DHT22;38455;52.710;6.502;2022-07-29T05:35:36;16.20;99.90
52555;DHT22;38455;52.710;6.502;2022-07-29T05:38:03;16.30;99.90
52555;DHT22;38455;52.710;6.502;2022-07-29T05:40:28;16.40;99.90
52555;DHT22;38455;52.710;6.502;2022-07-29T05:42:54;16.60;99.90
52555;DHT22;38455;52.710;6.502;2022-07-29T05:45:20;16.70;99.90
52555;DHT22;38455;52.710;6.502;2022-07-29T05:47:46;16.80;99.90
52555;DHT22;38455;52.710;6.502;2022-07-29T05:50:12;17.10;99.90
52555;DHT22;38455;52.710;6.502;2022-07-29T05:52:38;17.70;99.90
52555;DHT22;38455;52.710;6.502;2022-07-29T05:55:04;18.40;99.90
52555;DHT22;38455;52.710;6.502;2022-07-29T05:57:31;18.60;99.90
52555;DHT22;38455;52.710;6.502;2022-07-29T05:59:57;18.60;99.90
52555;DHT22;38455;52.710;6.502;2022-07-29T06:02:23;18.50;99.90
52555;DHT22;38455;52.710;6.502;2022-07-29T06:04:48;18.30;99.90
52555;DHT22;38455;52.710;6.502;2022-07-29T06:07:15;18.10;99.90
52555;DHT22;38455;52.710;6.502;2022-07-29T06:09:41;18.00;99.90
52555;DHT22;38455;52.710;6.502;2022-07-29T06:12:07;17.80;99.90
52555;DHT22;38455;52.710;6.502;2022-07-29T06:14:33;17.60;99.90
52555;DHT22;38455;52.710;6.502;2022-07-29T06:16:58;17.60;99.90
52555;DHT22;38455;52.710;6.502;2022-07-29T06:19:24;17.50;99.90
52555;DHT22;38455;52.710;6.502;2022-07-29T06:21:50;17.40;99.90
52555;DHT22;38455;52.710;6.502;2022-07-29T06:24:16;17.30;99.90
52555;DHT22;38455;52.710;6.502;2022-07-29T06:26:42;17.20;99.90
52555;DHT22;38455;52.710;6.502;2022-07-29T06:29:09;17.10;99.90
52555;DHT22;38455;52.710;6.502;2022-07-29T06:31:36;17.10;99.90
52555;DHT22;38455;52.710;6.502;2022-07-29T06:34:01;17.00;99.90
52555;DHT22;38455;52.710;6.502;2022-07-29T06:36:27;16.90;99.90
52555;DHT22;38455;52.710;6.502;2022-07-29T06:38:53;16.90;99.90
52555;DHT22;38455;52.710;6.502;2022-07-29T06:41:18;16.80;99.90
52555;DHT22;38455;52.710;6.502;2022-07-29T06:43:44;16.90;99.90
52555;DHT22;38455;52.710;6.502;2022-07-29T06:46:15;16.90;99.90
52555;DHT22;38455;52.710;6.502;2022-07-29T06:48:43;16.80;99.90
52555;DHT22;38455;52.710;6.502;2022-07-29T06:51:09;16.90;99.90
52555;DHT22;38455;52.710;6.502;2022-07-29T06:53:36;16.90;99.90
52555;DHT22;38455;52.710;6.502;2022-07-29T06:56:02;16.90;99.90
52555;DHT22;38455;52.710;6.502;2022-07-29T06:58:29;16.80;99.90
52555;DHT22;38455;52.710;6.502;2022-07-29T07:00:57;16.90;99.90
52555;DHT22;38455;52.710;6.502;2022-07-29T07:03:24;16.90;99.90
52555;DHT22;38455;52.710;6.502;2022-07-29T07:05:51;16.90;99.90
52555;DHT22;38455;52.710;6.502;2022-07-29T07:08:17;16.90;99.90
52555;DHT22;38455;52.710;6.502;2022-07-29T07:10:43;16.90;99.90
52555;DHT22;38455;52.710;6.502;2022-07-29T07:13:08;17.00;99.90
52555;DHT22;38455;52.710;6.502;2022-07-29T07:15:35;17.10;99.90
52555;DHT22;38455;52.710;6.502;2022-07-29T07:18:02;17.20;99.90
52555;DHT22;38455;52.710;6.502;2022-07-29T07:20:28;17.30;99.90
52555;DHT22;38455;52.710;6.502;2022-07-29T07:22:54;17.40;99.90
52555;DHT22;38455;52.710;6.502;2022-07-29T07:25:19;17.40;99.90
52555;DHT22;38455;52.710;6.502;2022-07-29T07:27:45;17.60;99.90
52555;DHT22;38455;52.710;6.502;2022-07-29T07:30:11;17.60;99.90
52555;DHT22;38455;52.710;6.502;2022-07-29T07:32:37;17.70;99.90
52555;DHT22;38455;52.710;6.502;2022-07-29T07:35:07;17.60;99.90
52555;DHT22;38455;52.710;6.502;2022-07-29T07:37:33;17.70;99.90
52555;DHT22;38455;52.710;6.502;2022-07-29T07:40:00;17.70;99.90
52555;DHT22;38455;52.710;6.502;2022-07-29T07:42:26;17.70;99.90
52555;DHT22;38455;52.710;6.502;2022-07-29T07:44:52;17.80;99.90
52555;DHT22;38455;52.710;6.502;2022-07-29T07:47:18;17.80;99.90
52555;DHT22;38455;52.710;6.502;2022-07-29T07:49:49;17.90;99.90
52555;DHT22;38455;52.710;6.502;2022-07-29T07:52:16;17.90;99.90
52555;DHT22;38455;52.710;6.502;2022-07-29T07:54:43;18.00;99.90
52555;DHT22;38455;52.710;6.502;2022-07-29T07:57:11;18.00;99.90
52555;DHT22;38455;52.710;6.502;2022-07-29T07:59:37;18.00;99.90
52555;DHT22;38455;52.710;6.502;2022-07-29T08:02:03;18.00;99.90
52555;DHT22;38455;52.710;6.502;2022-07-29T08:04:28;18.10;99.90
52555;DHT22;38455;52.710;6.502;2022-07-29T08:06:55;18.10;99.90
52555;DHT22;38455;52.710;6.502;2022-07-29T08:09:21;18.10;99.90
52555;DHT22;38455;52.710;6.502;2022-07-29T08:11:47;18.00;99.90
52555;DHT22;38455;52.710;6.502;2022-07-29T08:14:12;17.90;99.90
52555;DHT22;38455;52.710;6.502;2022-07-29T08:16:39;18.00;99.90
52555;DHT22;38455;52.710;6.502;2022-07-29T08:19:08;17.90;99.90
52555;DHT22;38455;52.710;6.502;2022-07-29T08:21:33;17.90;99.90
52555;DHT22;38455;52.710;6.502;2022-07-29T08:23:59;17.90;99.90
52555;DHT22;38455;52.710;6.502;2022-07-29T08:26:45;17.90;99.90
52555;DHT22;38455;52.710;6.502;2022-07-29T08:29:11;17.90;99.90
52555;DHT22;38455;52.710;6.502;2022-07-29T08:31:37;17.90;99.90
52555;DHT22;38455;52.710;6.502;2022-07-29T08:34:03;17.80;99.90
52555;DHT22;38455;52.710;6.502;2022-07-29T08:36:30;17.70;99.90
52555;DHT22;38455;52.710;6.502;2022-07-29T08:38:56;17.80;99.90
52555;DHT22;38455;52.710;6.502;2022-07-29T08:41:22;17.70;99.90
52555;DHT22;38455;52.710;6.502;2022-07-29T08:43:49;17.70;99.90
52555;DHT22;38455;52.710;6.502;2022-07-29T08:46:15;17.60;99.90
52555;DHT22;38455;52.710;6.502;2022-07-29T08:48:42;17.60;99.90
52555;DHT22;38455;52.710;6.502;2022-07-29T08:51:08;17.60;99.90
52555;DHT22;38455;52.710;6.502;2022-07-29T08:53:41;17.60;99.90
52555;DHT22;38455;52.710;6.502;2022-07-29T08:56:07;17.60;99.90
52555;DHT22;38455;52.710;6.502;2022-07-29T08:58:36;17.70;99.90
52555;DHT22;38455;52.710;6.502;2022-07-29T09:01:02;17.70;99.90
52555;DHT22;38455;52.710;6.502;2022-07-29T09:03:31;17.80;99.90
52555;DHT22;38455;52.710;6.502;2022-07-29T09:05:58;17.90;99.90
52555;DHT22;38455;52.710;6.502;2022-07-29T09:08:25;17.90;99.90
52555;DHT22;38455;52.710;6.502;2022-07-29T09:10:51;18.10;99.90
52555;DHT22;38455;52.710;6.502;2022-07-29T09:13:17;18.10;99.90
52555;DHT22;38455;52.710;6.502;2022-07-29T09:15:44;18.30;99.90
52555;DHT22;38455;52.710;6.502;2022-07-29T09:18:09;18.40;99.90
52555;DHT22;38455;52.710;6.502;2022-07-29T09:20:35;18.60;99.90
52555;DHT22;38455;52.710;6.502;2022-07-29T09:23:19;18.60;99.90
52555;DHT22;38455;52.710;6.502;2022-07-29T09:25:45;18.80;99.90
52555;DHT22;38455;52.710;6.502;2022-07-29T09:28:14;18.80;99.90
52555;DHT22;38455;52.710;6.502;2022-07-29T09:30:54;18.80;99.90
52555;DHT22;38455;52.710;6.502;2022-07-29T09:33:21;19.00;99.90
52555;DHT22;38455;52.710;6.502;2022-07-29T09:38:27;19.20;99.90
52555;DHT22;38455;52.710;6.502;2022-07-29T09:40:58;19.30;99.90
52555;DHT22;38455;52.710;6.502;2022-07-29T09:43:27;19.30;99.90
52555;DHT22;38455;52.710;6.502;2022-07-29T09:45:52;19.40;99.90
52555;DHT22;38455;52.710;6.502;2022-07-29T09:48:24;19.40;99.90
52555;DHT22;38455;52.710;6.502;2022-07-29T09:50:50;19.50;99.90
52555;DHT22;38455;52.710;6.502;2022-07-29T09:53:35;19.40;99.90
52555;DHT22;38455;52.710;6.502;2022-07-29T09:56:01;19.50;99.90
52555;DHT22;38455;52.710;6.502;2022-07-29T09:58:27;19.60;99.90
52555;DHT22;38455;52.710;6.502;2022-07-29T10:00:54;19.70;99.90
52555;DHT22;38455;52.710;6.502;2022-07-29T10:03:20;19.70;99.90
52555;DHT22;38455;52.710;6.502;2022-07-29T10:05:47;19.70;99.90
52555;DHT22;38455;52.710;6.502;2022-07-29T10:08:28;19.80;99.90
52555;DHT22;38455;52.710;6.502;2022-07-29T10:11:09;19.80;99.90
52555;DHT22;38455;52.710;6.502;2022-07-29T10:13:36;20.00;99.90
52555;DHT22;38455;52.710;6.502;2022-07-29T10:16:03;20.10;99.90
52555;DHT22;38455;52.710;6.502;2022-07-29T10:18:29;20.10;99.90
52555;DHT22;38455;52.710;6.502;2022-07-29T10:20:55;20.30;99.90
52555;DHT22;38455;52.710;6.502;2022-07-29T10:23:22;20.30;99.90
52555;DHT22;38455;52.710;6.502;2022-07-29T10:25:49;20.50;99.90
52555;DHT22;38455;52.710;6.502;2022-07-29T10:28:15;20.60;99.90
52555;DHT22;38455;52.710;6.502;2022-07-29T10:30:44;20.80;99.90
52555;DHT22;38455;52.710;6.502;2022-07-29T10:36:09;20.90;99.90
52555;DHT22;38455;52.710;6.502;2022-07-29T10:44:21;21.40;99.90
52555;DHT22;38455;52.710;6.502;2022-07-29T10:46:48;21.50;99.90
52555;DHT22;38455;52.710;6.502;2022-07-29T10:49:24;21.80;99.90
52555;DHT22;38455;52.710;6.502;2022-07-29T10:59:45;22.20;99.90
52555;DHT22;38455;52.710;6.502;2022-07-29T11:02:44;22.20;99.90
52555;DHT22;38455;52.710;6.502;2022-07-29T11:05:17;22.40;99.90
52555;DHT22;38455;52.710;6.502;2022-07-29T11:10:38;22.30;99.90
52555;DHT22;38455;52.710;6.502;2022-07-29T11:13:04;22.20;99.90
52555;DHT22;38455;52.710;6.502;2022-07-29T11:15:53;22.20;99.90
52555;DHT22;38455;52.710;6.502;2022-07-29T11:18:19;22.20;99.90
52555;DHT22;38455;52.710;6.502;2022-07-29T11:20:49;22.20;99.90
52555;DHT22;38455;52.710;6.502;2022-07-29T11:23:26;22.30;99.90
52555;DHT22;38455;52.710;6.502;2022-07-29T11:31:36;22.50;99.90
52555;DHT22;38455;52.710;6.502;2022-07-29T11:34:27;22.40;99.90
52555;DHT22;38455;52.710;6.502;2022-07-29T11:39:43;22.30;99.90
52555;DHT22;38455;52.710;6.502;2022-07-29T11:45:09;22.20;99.90
52555;DHT22;38455;52.710;6.502;2022-07-29T11:47:46;22.30;99.90
52555;DHT22;38455;52.710;6.502;2022-07-29T11:50:15;22.10;99.90
52555;DHT22;38455;52.710;6.502;2022-07-29T11:52:46;22.10;99.90
52555;DHT22;38455;52.710;6.502;2022-07-29T11:55:17;22.40;99.90
52555;DHT22;38455;52.710;6.502;2022-07-29T11:57:48;22.50;99.90
52555;DHT22;38455;52.710;6.502;2022-07-29T12:02:47;22.90;99.90
52555;DHT22;38455;52.710;6.502;2022-07-29T12:05:13;23.20;99.90
52555;DHT22;38455;52.710;6.502;2022-07-29T12:07:39;23.70;99.90
52555;DHT22;38455;52.710;6.502;2022-07-29T12:10:06;24.10;99.90
52555;DHT22;38455;52.710;6.502;2022-07-29T12:12:33;24.80;99.90
52555;DHT22;38455;52.710;6.502;2022-07-29T12:15:10;25.20;99.90
52555;DHT22;38455;52.710;6.502;2022-07-29T12:17:36;25.60;99.50
52555;DHT22;38455;52.710;6.502;2022-07-29T12:20:04;26.30;99.90
52555;DHT22;38455;52.710;6.502;2022-07-29T12:22:38;26.80;97.90
52555;DHT22;38455;52.710;6.502;2022-07-29T12:25:11;27.00;97.60
52555;DHT22;38455;52.710;6.502;2022-07-29T12:27:37;26.80;95.20
52555;DHT22;38455;52.710;6.502;2022-07-29T12:30:15;27.20;95.70
52555;DHT22;38455;52.710;6.502;2022-07-29T12:32:48;27.10;92.00
52555;DHT22;38455;52.710;6.502;2022-07-29T12:35:14;26.70;91.00
52555;DHT22;38455;52.710;6.502;2022-07-29T12:37:42;26.40;92.00
52555;DHT22;38455;52.710;6.502;2022-07-29T12:40:10;26.40;92.80
52555;DHT22;38455;52.710;6.502;2022-07-29T12:42:36;26.40;92.40
52555;DHT22;38455;52.710;6.502;2022-07-29T12:45:03;26.60;91.50
52555;DHT22;38455;52.710;6.502;2022-07-29T12:47:29;27.00;91.80
52555;DHT22;38455;52.710;6.502;2022-07-29T12:50:15;26.80;90.20
52555;DHT22;38455;52.710;6.502;2022-07-29T12:52:44;26.90;87.30
52555;DHT22;38455;52.710;6.502;2022-07-29T12:55:10;26.80;88.90
52555;DHT22;38455;52.710;6.502;2022-07-29T12:57:50;26.50;88.30
52555;DHT22;38455;52.710;6.502;2022-07-29T13:00:22;26.30;88.30
52555;DHT22;38455;52.710;6.502;2022-07-29T13:02:56;26.30;90.10
52555;DHT22;38455;52.710;6.502;2022-07-29T13:05:22;26.10;89.00
52555;DHT22;38455;52.710;6.502;2022-07-29T13:07:47;26.00;88.40
52555;DHT22;38455;52.710;6.502;2022-07-29T13:10:16;25.80;88.20
52555;DHT22;38455;52.710;6.502;2022-07-29T13:13:11;25.70;87.80
52555;DHT22;38455;52.710;6.502;2022-07-29T13:15:40;25.70;88.40
52555;DHT22;38455;52.710;6.502;2022-07-29T13:18:29;25.40;86.50
52555;DHT22;38455;52.710;6.502;2022-07-29T13:20:55;25.40;87.40
52555;DHT22;38455;52.710;6.502;2022-07-29T13:23:21;25.20;87.50
52555;DHT22;38455;52.710;6.502;2022-07-29T13:25:47;25.30;87.50
52555;DHT22;38455;52.710;6.502;2022-07-29T13:28:13;25.40;87.60
52555;DHT22;38455;52.710;6.502;2022-07-29T13:30:41;25.40;88.20
52555;DHT22;38455;52.710;6.502;2022-07-29T13:33:08;25.50;89.40
52555;DHT22;38455;52.710;6.502;2022-07-29T13:35:33;25.50;87.10
52555;DHT22;38455;52.710;6.502;2022-07-29T13:37:59;25.40;86.70
52555;DHT22;38455;52.710;6.502;2022-07-29T13:40:25;25.40;87.00
52555;DHT22;38455;52.710;6.502;2022-07-29T13:42:51;25.40;85.60
52555;DHT22;38455;52.710;6.502;2022-07-29T13:45:17;25.50;85.40
52555;DHT22;38455;52.710;6.502;2022-07-29T13:47:42;25.40;85.00
52555;DHT22;38455;52.710;6.502;2022-07-29T13:50:08;25.40;85.60
52555;DHT22;38455;52.710;6.502;2022-07-29T13:52:36;25.50;85.60
52555;DHT22;38455;52.710;6.502;2022-07-29T13:55:03;25.40;85.90
52555;DHT22;38455;52.710;6.502;2022-07-29T13:57:29;25.40;84.90
52555;DHT22;38455;52.710;6.502;2022-07-29T13:59:55;25.60;85.20
52555;DHT22;38455;52.710;6.502;2022-07-29T14:02:21;25.90;85.70
52555;DHT22;38455;52.710;6.502;2022-07-29T14:04:47;25.90;84.60
52555;DHT22;38455;52.710;6.502;2022-07-29T14:07:12;25.70;83.30
52555;DHT22;38455;52.710;6.502;2022-07-29T14:09:38;25.50;82.80
52555;DHT22;38455;52.710;6.502;2022-07-29T14:12:04;25.50;82.00
52555;DHT22;38455;52.710;6.502;2022-07-29T14:14:30;25.70;82.60
52555;DHT22;38455;52.710;6.502;2022-07-29T14:16:58;25.80;83.00
52555;DHT22;38455;52.710;6.502;2022-07-29T14:19:23;25.90;83.70
52555;DHT22;38455;52.710;6.502;2022-07-29T14:21:49;25.70;82.70
52555;DHT22;38455;52.710;6.502;2022-07-29T14:24:15;25.70;83.20
52555;DHT22;38455;52.710;6.502;2022-07-29T14:26:40;25.70;84.40
52555;DHT22;38455;52.710;6.502;2022-07-29T14:29:06;25.70;83.70
52555;DHT22;38455;52.710;6.502;2022-07-29T14:31:32;25.60;83.70
52555;DHT22;38455;52.710;6.502;2022-07-29T14:33:58;25.70;84.20
52555;DHT22;38455;52.710;6.502;2022-07-29T14:36:23;25.80;85.10
52555;DHT22;38455;52.710;6.502;2022-07-29T14:38:49;25.80;85.50
52555;DHT22;38455;52.710;6.502;2022-07-29T14:41:15;25.70;83.80
52555;DHT22;38455;52.710;6.502;2022-07-29T14:43:40;25.70;84.60
52555;DHT22;38455;52.710;6.502;2022-07-29T14:46:09;25.60;84.90
52555;DHT22;38455;52.710;6.502;2022-07-29T14:48:35;25.50;84.00
52555;DHT22;38455;52.710;6.502;2022-07-29T14:51:00;25.40;83.30
52555;DHT22;38455;52.710;6.502;2022-07-29T14:53:28;25.20;83.90
52555;DHT22;38455;52.710;6.502;2022-07-29T14:55:54;25.20;85.20
52555;DHT22;38455;52.710;6.502;2022-07-29T14:58:19;25.10;84.60
52555;DHT22;38455;52.710;6.502;2022-07-29T15:00:46;25.20;85.50
52555;DHT22;38455;52.710;6.502;2022-07-29T15:03:12;25.20;86.90
52555;DHT22;38455;52.710;6.502;2022-07-29T15:05:38;25.20;86.30
52555;DHT22;38455;52.710;6.502;2022-07-29T15:08:04;25.20;84.40
52555;DHT22;38455;52.710;6.502;2022-07-29T15:10:29;25.00;83.10
52555;DHT22;38455;52.710;6.502;2022-07-29T15:12:56;25.00;83.30
52555;DHT22;38455;52.710;6.502;2022-07-29T15:15:22;25.00;83.60
52555;DHT22;38455;52.710;6.502;2022-07-29T15:17:48;24.90;84.80
52555;DHT22;38455;52.710;6.502;2022-07-29T15:20:14;24.90;84.70
52555;DHT22;38455;52.710;6.502;2022-07-29T15:22:39;24.90;84.90
52555;DHT22;38455;52.710;6.502;2022-07-29T15:25:06;24.80;84.80
52555;DHT22;38455;52.710;6.502;2022-07-29T15:27:32;24.70;85.20
52555;DHT22;38455;52.710;6.502;2022-07-29T15:29:58;24.70;86.20
52555;DHT22;38455;52.710;6.502;2022-07-29T15:32:26;24.70;84.60
52555;DHT22;38455;52.710;6.502;2022-07-29T15:34:52;24.80;85.10
52555;DHT22;38455;52.710;6.502;2022-07-29T15:37:17;24.70;85.40
52555;DHT22;38455;52.710;6.502;2022-07-29T15:39:43;24.70;85.20
52555;DHT22;38455;52.710;6.502;2022-07-29T15:42:08;24.60;85.20
52555;DHT22;38455;52.710;6.502;2022-07-29T15:44:34;24.60;85.00
52555;DHT22;38455;52.710;6.502;2022-07-29T15:47:00;24.50;85.40
52555;DHT22;38455;52.710;6.502;2022-07-29T15:49:36;24.50;84.80
52555;DHT22;38455;52.710;6.502;2022-07-29T15:52:04;24.50;84.50
52555;DHT22;38455;52.710;6.502;2022-07-29T15:54:38;24.50;84.80
52555;DHT22;38455;52.710;6.502;2022-07-29T15:57:06;24.50;85.10
52555;DHT22;38455;52.710;6.502;2022-07-29T15:59:32;24.50;85.60
52555;DHT22;38455;52.710;6.502;2022-07-29T16:01:58;24.50;85.50
52555;DHT22;38455;52.710;6.502;2022-07-29T16:04:25;24.50;85.90
52555;DHT22;38455;52.710;6.502;2022-07-29T16:06:50;24.40;85.60
52555;DHT22;38455;52.710;6.502;2022-07-29T16:09:16;24.40;85.80
52555;DHT22;38455;52.710;6.502;2022-07-29T16:11:42;24.30;85.50
52555;DHT22;38455;52.710;6.502;2022-07-29T16:14:10;24.30;86.60
52555;DHT22;38455;52.710;6.502;2022-07-29T16:16:37;24.30;87.80
52555;DHT22;38455;52.710;6.502;2022-07-29T16:19:03;24.30;88.70